Terminal Aerodrome Forecast
Issued by NWS

Home | Current Version | Previous Version | Graphics & Text | Print | Product List | Glossary On
Versions: 1 2 3 4 5 6 7 8 9 10 11 12 13 14 15
850
FTUS43 KIWX 201121
TAFSBN
TAF
KSBN 201121Z 2012/2112 24005KT P6SM VCSH SCT050
      TEMPO 2012/2014 5SM TSRA OVC050CB
     FM201500 26010KT P6SM BKN150
     FM202000 28009KT P6SM VCTS BKN050CB
     FM210200 VRB03KT P6SM SCT080=

USA.gov is the U.S. government's official web portal to all federal, state and local government web resources and services.